createdAt,value
2018-07-17T00:00:03.693Z,33.94
2018-07-17T00:02:35.673Z,33.96
2018-07-17T00:05:07.700Z,33.92
2018-07-17T00:07:39.623Z,33.93
2018-07-17T00:10:11.251Z,33.96
2018-07-17T00:12:43.738Z,33.93
2018-07-17T00:15:15.955Z,33.92
2018-07-17T00:17:48.117Z,33.91
2018-07-17T00:20:19.890Z,33.92
2018-07-17T00:22:51.688Z,33.92
2018-07-17T00:25:23.658Z,33.90
2018-07-17T00:27:55.257Z,33.91
2018-07-17T00:30:26.695Z,33.90
2018-07-17T00:32:58.608Z,33.89
2018-07-17T00:35:30.193Z,33.90
2018-07-17T00:38:02.365Z,33.88
2018-07-17T00:40:34.501Z,33.90
2018-07-17T00:43:06.388Z,33.91
2018-07-17T00:45:38.185Z,33.90
2018-07-17T00:48:09.956Z,33.89
2018-07-17T00:50:41.479Z,33.91
2018-07-17T00:53:13.264Z,33.87
2018-07-17T00:55:44.783Z,33.87
2018-07-17T00:58:16.752Z,33.86
2018-07-17T01:00:47.199Z,33.84
2018-07-17T01:03:23.563Z,33.85
2018-07-17T01:05:59.767Z,33.83
2018-07-17T01:08:36.158Z,33.86
2018-07-17T01:11:12.715Z,33.84
2018-07-17T01:14:52.965Z,33.84
2018-07-17T01:17:25.561Z,33.83
2018-07-17T01:19:57.477Z,33.84
2018-07-17T01:22:28.814Z,33.84
2018-07-17T01:25:00.752Z,33.82
2018-07-17T01:27:32.282Z,33.83
2018-07-17T01:30:03.993Z,33.83
2018-07-17T01:32:35.571Z,33.80
2018-07-17T01:35:07.363Z,33.80
2018-07-17T01:37:38.854Z,33.79
2018-07-17T01:40:10.738Z,33.83
2018-07-17T01:42:42.787Z,33.82
2018-07-17T01:45:15.481Z,33.82
2018-07-17T01:47:46.743Z,33.80
2018-07-17T01:50:18.541Z,33.79
2018-07-17T01:52:50.180Z,33.83
2018-07-17T01:55:22.074Z,33.78
2018-07-17T01:57:53.966Z,33.82
2018-07-17T02:00:25.759Z,33.82
2018-07-17T02:02:57.754Z,33.81
2018-07-17T02:05:29.534Z,33.79
2018-07-17T02:08:01.403Z,33.80
2018-07-17T02:10:33.306Z,33.81
2018-07-17T02:13:05.084Z,33.80
2018-07-17T02:15:36.948Z,33.79
2018-07-17T02:18:08.528Z,33.82
2018-07-17T02:20:40.785Z,33.80
2018-07-17T02:23:12.231Z,33.79
2018-07-17T02:25:44.205Z,33.83
2018-07-17T02:28:15.829Z,33.82
2018-07-17T02:30:47.456Z,33.82
2018-07-17T02:33:19.110Z,33.81
2018-07-17T02:35:50.775Z,33.80
2018-07-17T02:38:22.488Z,33.80
2018-07-17T02:40:54.505Z,33.84
2018-07-17T02:43:26.254Z,33.81
2018-07-17T02:45:59.171Z,33.83
2018-07-17T02:48:31.000Z,33.88
2018-07-17T02:51:02.799Z,33.87
2018-07-17T02:53:36.263Z,33.85
2018-07-17T02:56:08.417Z,33.84
2018-07-17T02:58:40.249Z,33.85
2018-07-17T03:01:12.326Z,33.85
2018-07-17T03:03:44.496Z,33.84
2018-07-17T03:06:16.373Z,33.87
2018-07-17T03:08:47.656Z,33.86
2018-07-17T03:11:19.001Z,33.85
2018-07-17T03:13:50.187Z,33.86
2018-07-17T03:16:22.054Z,33.86
2018-07-17T03:18:54.044Z,33.89
2018-07-17T03:21:25.785Z,33.89
2018-07-17T03:23:57.788Z,33.87
2018-07-17T03:26:29.259Z,33.87
2018-07-17T03:29:01.299Z,33.89
2018-07-17T03:31:32.791Z,33.91
2018-07-17T03:34:04.562Z,33.89
2018-07-17T03:36:36.483Z,33.89
2018-07-17T03:39:09.648Z,33.92
2018-07-17T03:41:41.517Z,33.91
2018-07-17T03:44:12.966Z,33.90
2018-07-17T03:46:46.833Z,33.90
2018-07-17T03:49:18.574Z,33.93
2018-07-17T03:51:50.250Z,33.89
2018-07-17T03:54:22.072Z,33.92
2018-07-17T03:56:53.781Z,33.90
2018-07-17T03:59:26.745Z,33.92
2018-07-17T04:01:58.788Z,33.99
2018-07-17T04:04:30.328Z,34.02
2018-07-17T04:07:02.157Z,34.04
2018-07-17T04:09:33.546Z,34.09
2018-07-17T04:12:05.761Z,34.10
2018-07-17T04:14:37.516Z,34.13
2018-07-17T04:17:09.480Z,34.14
2018-07-17T04:19:41.262Z,34.13
2018-07-17T04:22:12.974Z,34.13
2018-07-17T04:24:45.081Z,34.16
2018-07-17T04:27:16.882Z,34.18
2018-07-17T04:29:49.293Z,34.19
2018-07-17T04:32:21.215Z,34.20
2018-07-17T04:34:53.115Z,34.21
2018-07-17T04:37:25.656Z,34.22
2018-07-17T04:39:57.601Z,34.22
2018-07-17T04:42:29.463Z,34.12
2018-07-17T04:45:01.227Z,33.96
2018-07-17T04:47:34.072Z,34.05
2018-07-17T04:50:05.785Z,34.05
2018-07-17T04:52:37.588Z,34.10
2018-07-17T04:55:09.340Z,34.20
2018-07-17T04:57:41.141Z,34.23
2018-07-17T05:00:13.145Z,34.23
2018-07-17T05:02:44.872Z,34.24
2018-07-17T05:05:16.877Z,34.28
2018-07-17T05:07:59.698Z,34.30
2018-07-17T05:10:31.330Z,34.28
2018-07-17T05:13:03.309Z,34.31
2018-07-17T05:15:35.096Z,34.32
2018-07-17T05:18:07.002Z,34.33
2018-07-17T05:20:39.020Z,34.37
2018-07-17T05:23:10.968Z,34.39
2018-07-17T05:25:42.778Z,34.39
2018-07-17T05:28:14.483Z,34.41
2018-07-17T05:30:46.311Z,34.41
2018-07-17T05:33:18.083Z,34.43
2018-07-17T05:35:49.667Z,34.44
2018-07-17T05:38:20.978Z,34.46
2018-07-17T05:40:52.936Z,34.50
2018-07-17T05:43:24.483Z,34.49
2018-07-17T05:45:56.188Z,34.50
2018-07-17T05:48:28.431Z,34.51
2018-07-17T05:51:00.035Z,34.52
2018-07-17T05:53:31.970Z,34.54
2018-07-17T05:56:03.819Z,34.56
2018-07-17T05:58:36.035Z,34.59
2018-07-17T06:01:07.768Z,34.58
2018-07-17T06:03:39.820Z,34.59
2018-07-17T06:06:11.582Z,34.63
2018-07-17T06:08:43.492Z,34.61
2018-07-17T06:11:14.941Z,34.67
2018-07-17T06:13:47.394Z,34.65
2018-07-17T06:16:19.835Z,34.67
2018-07-17T06:18:51.710Z,34.66
2018-07-17T06:21:23.588Z,34.69
2018-07-17T06:23:55.295Z,34.70
2018-07-17T06:26:27.048Z,34.73
2018-07-17T06:28:58.953Z,34.73
2018-07-17T06:31:30.781Z,34.73
2018-07-17T06:34:02.357Z,34.74
2018-07-17T06:36:34.426Z,34.78
2018-07-17T06:39:07.900Z,34.79
2018-07-17T06:41:39.881Z,34.79
2018-07-17T06:44:11.666Z,34.79
2018-07-17T06:46:43.384Z,34.79
2018-07-17T06:49:15.565Z,34.83
2018-07-17T06:51:47.326Z,34.83
2018-07-17T06:54:19.123Z,34.84
2018-07-17T06:56:50.820Z,34.84
2018-07-17T06:59:22.599Z,34.86
2018-07-17T07:01:54.075Z,34.91
2018-07-17T07:04:26.051Z,34.91
2018-07-17T07:06:58.067Z,34.94
2018-07-17T07:09:29.898Z,34.94
2018-07-17T07:12:01.580Z,34.94
2018-07-17T07:14:33.445Z,34.93
2018-07-17T07:17:05.312Z,34.96
2018-07-17T07:19:37.421Z,34.96
2018-07-17T07:22:09.037Z,34.98
2018-07-17T07:24:40.868Z,34.98
2018-07-17T07:27:12.552Z,35.03
2018-07-17T07:29:44.087Z,35.05
2018-07-17T07:32:15.744Z,35.05
2018-07-17T07:34:47.721Z,35.10
2018-07-17T07:37:19.638Z,35.11
2018-07-17T07:39:51.455Z,35.12
2018-07-17T07:42:23.501Z,35.11
2018-07-17T07:44:55.167Z,35.00
2018-07-17T07:47:26.949Z,34.96
2018-07-17T07:49:59.152Z,34.95
2018-07-17T07:52:30.846Z,34.92
2018-07-17T07:55:02.526Z,34.90
2018-07-17T07:57:34.127Z,34.88
2018-07-17T08:00:06.062Z,34.90
2018-07-17T08:02:37.750Z,34.92
2018-07-17T08:05:09.546Z,34.94
2018-07-17T08:07:41.229Z,34.95
2018-07-17T08:10:13.071Z,34.93
2018-07-17T08:12:44.756Z,34.94
2018-07-17T08:15:16.710Z,34.93
2018-07-17T08:17:48.541Z,34.92
2018-07-17T08:20:20.437Z,34.92
2018-07-17T08:22:52.097Z,34.94
2018-07-17T08:25:24.031Z,34.95
2018-07-17T08:27:55.820Z,34.96
2018-07-17T08:30:27.631Z,34.92
2018-07-17T08:32:59.394Z,34.91
2018-07-17T08:35:31.083Z,34.92
2018-07-17T08:38:02.773Z,34.88
2018-07-17T08:40:34.374Z,34.89
2018-07-17T08:43:06.039Z,34.89
2018-07-17T08:45:37.872Z,34.92
2018-07-17T08:48:09.637Z,34.99
2018-07-17T08:50:42.644Z,34.99
2018-07-17T08:53:14.537Z,34.98
2018-07-17T08:55:46.465Z,34.99
2018-07-17T08:58:18.216Z,35.00
2018-07-17T09:00:50.132Z,35.04
2018-07-17T09:03:22.235Z,35.05
2018-07-17T09:05:54.231Z,35.05
2018-07-17T09:08:25.994Z,35.04
2018-07-17T09:10:57.759Z,35.06
2018-07-17T09:13:29.574Z,35.07
2018-07-17T09:16:01.205Z,35.07
2018-07-17T09:18:32.959Z,35.08
2018-07-17T09:21:04.740Z,35.06
2018-07-17T09:23:36.494Z,35.04
2018-07-17T09:26:08.260Z,35.05
2018-07-17T09:28:39.963Z,35.05
2018-07-17T09:31:11.548Z,35.04
2018-07-17T09:33:43.537Z,35.07
2018-07-17T09:36:15.158Z,35.07
2018-07-17T09:38:46.894Z,35.08
2018-07-17T09:41:18.321Z,35.08
2018-07-17T09:43:50.058Z,35.09
2018-07-17T09:46:21.875Z,35.11
2018-07-17T09:48:53.573Z,35.11
2018-07-17T09:51:25.629Z,35.10
2018-07-17T09:53:57.364Z,35.12
2018-07-17T09:56:29.144Z,35.14
2018-07-17T09:59:00.857Z,35.14
2018-07-17T10:01:37.184Z,35.16
2018-07-17T10:04:08.916Z,35.18
2018-07-17T10:06:40.767Z,35.17
2018-07-17T10:09:12.403Z,35.16
2018-07-17T10:11:44.439Z,35.20
2018-07-17T10:14:15.874Z,35.20
2018-07-17T10:16:47.807Z,35.20
2018-07-17T10:19:19.658Z,35.21
2018-07-17T10:21:51.718Z,35.21
2018-07-17T10:24:23.537Z,35.22
2018-07-17T10:26:55.255Z,35.24
2018-07-17T10:29:26.924Z,35.30
2018-07-17T10:31:58.763Z,35.31
2018-07-17T10:34:30.642Z,35.33
2018-07-17T10:37:02.250Z,35.36
2018-07-17T10:39:34.076Z,35.33
2018-07-17T10:42:05.949Z,35.30
2018-07-17T10:44:37.588Z,35.32
2018-07-17T10:47:09.271Z,35.33
2018-07-17T10:49:41.205Z,35.33
2018-07-17T10:52:14.953Z,35.32
2018-07-17T10:54:46.712Z,35.34
2018-07-17T10:57:18.799Z,35.35
2018-07-17T10:59:50.921Z,35.39
2018-07-17T11:02:22.853Z,35.37
2018-07-17T11:04:54.546Z,35.40
2018-07-17T11:07:26.365Z,35.39
2018-07-17T11:09:58.013Z,35.37
2018-07-17T11:12:29.804Z,35.41
2018-07-17T11:15:01.579Z,35.40
2018-07-17T11:17:33.382Z,35.42
2018-07-17T11:20:05.054Z,35.43
2018-07-17T11:22:37.112Z,35.42
2018-07-17T11:25:08.829Z,35.41
2018-07-17T11:27:40.705Z,35.41
2018-07-17T11:30:12.494Z,35.42
2018-07-17T11:32:44.358Z,35.45
2018-07-17T11:35:15.981Z,35.47
2018-07-17T11:37:47.863Z,35.49
2018-07-17T11:40:19.487Z,35.50
2018-07-17T11:42:51.371Z,35.51
2018-07-17T11:45:23.054Z,35.52
2018-07-17T11:50:58.086Z,35.52
2018-07-17T11:53:30.084Z,35.46
2018-07-17T11:56:01.916Z,35.45
2018-07-17T11:58:33.626Z,35.17
2018-07-17T12:01:06.250Z,35.04
2018-07-17T12:03:37.875Z,34.98
2018-07-17T12:06:09.698Z,34.95
2018-07-17T12:08:41.318Z,35.18
2018-07-17T12:11:14.111Z,35.33
2018-07-17T12:13:45.719Z,35.41
2018-07-17T12:16:17.625Z,35.45
2018-07-17T12:18:49.233Z,35.46
2018-07-17T12:21:20.978Z,35.45
2018-07-17T12:23:52.584Z,35.48
2018-07-17T12:26:24.376Z,35.49
2018-07-17T12:28:55.932Z,35.51
2018-07-17T12:31:27.655Z,35.53
2018-07-17T12:33:59.325Z,35.53
2018-07-17T12:36:31.085Z,35.51
2018-07-17T12:39:02.764Z,35.47
2018-07-17T12:41:34.448Z,35.49
2018-07-17T12:44:06.344Z,35.55
2018-07-17T12:46:38.265Z,35.56
2018-07-17T12:49:09.752Z,35.55
2018-07-17T12:51:41.720Z,35.53
2018-07-17T12:54:13.245Z,35.54
2018-07-17T12:56:45.062Z,35.52
2018-07-17T12:59:16.775Z,35.54
2018-07-17T13:01:48.807Z,35.56
2018-07-17T13:04:20.423Z,35.55
2018-07-17T13:06:51.962Z,35.55
2018-07-17T13:09:23.671Z,35.56
2018-07-17T13:11:55.500Z,35.55
2018-07-17T13:14:27.140Z,35.55
2018-07-17T13:16:59.048Z,35.57
2018-07-17T13:19:30.801Z,35.58
2018-07-17T13:22:02.524Z,35.57
2018-07-17T13:24:33.935Z,35.57
2018-07-17T13:27:05.761Z,35.59
2018-07-17T13:29:37.433Z,35.57
2018-07-17T13:32:09.486Z,35.56
2018-07-17T13:34:41.017Z,35.56
2018-07-17T13:37:12.932Z,35.58
2018-07-17T13:39:44.996Z,35.57
2018-07-17T13:42:16.955Z,35.55
2018-07-17T13:44:48.765Z,35.58
2018-07-17T13:47:20.450Z,35.57
2018-07-17T13:49:52.013Z,35.56
2018-07-17T13:52:24.051Z,35.57
2018-07-17T13:54:55.617Z,35.57
2018-07-17T13:57:27.932Z,35.57
2018-07-17T13:59:59.622Z,35.59
2018-07-17T14:02:31.301Z,35.59
2018-07-17T14:05:03.175Z,35.57
2018-07-17T14:07:34.768Z,35.59
2018-07-17T14:10:06.552Z,35.59
2018-07-17T14:12:37.837Z,35.58
2018-07-17T14:15:09.345Z,35.59
2018-07-17T14:17:41.159Z,35.59
2018-07-17T14:20:13.496Z,35.58
2018-07-17T14:22:45.330Z,35.57
2018-07-17T14:25:16.749Z,35.57
2018-07-17T14:27:48.678Z,35.57
2018-07-17T14:30:20.570Z,35.58
2018-07-17T14:32:52.292Z,35.58
2018-07-17T14:35:23.915Z,35.60
2018-07-17T14:37:55.744Z,35.61
2018-07-17T14:40:27.428Z,35.61
2018-07-17T14:42:59.257Z,35.59
2018-07-17T14:45:30.890Z,35.61
2018-07-17T14:48:02.821Z,35.60
2018-07-17T14:50:34.458Z,35.61
2018-07-17T14:53:06.470Z,35.60
2018-07-17T14:55:38.189Z,35.59
2018-07-17T14:58:09.993Z,35.59
2018-07-17T15:00:41.556Z,35.59
2018-07-17T15:03:13.532Z,35.51
2018-07-17T15:05:45.182Z,35.49
2018-07-17T15:08:17.069Z,35.54
2018-07-17T15:10:48.906Z,35.58
2018-07-17T15:13:20.751Z,35.58
2018-07-17T15:15:52.439Z,35.59
2018-07-17T15:18:24.556Z,35.59
2018-07-17T15:20:56.437Z,35.58
2018-07-17T15:23:27.640Z,35.57
2018-07-17T15:25:58.735Z,35.59
2018-07-17T15:28:30.719Z,35.59
2018-07-17T15:31:02.343Z,35.58
2018-07-17T15:33:34.238Z,35.59
2018-07-17T15:36:05.832Z,35.58
2018-07-17T15:38:37.719Z,35.59
2018-07-17T15:41:09.186Z,35.58
2018-07-17T15:43:40.870Z,35.59
2018-07-17T15:46:12.505Z,35.57
2018-07-17T15:48:44.312Z,35.59
2018-07-17T15:51:16.049Z,35.57
2018-07-17T15:53:47.883Z,35.56
2018-07-17T15:56:19.500Z,35.51
2018-07-17T15:58:51.237Z,35.50
2018-07-17T16:01:22.910Z,35.52
2018-07-17T16:03:54.619Z,35.55
2018-07-17T16:06:26.276Z,35.56
2018-07-17T16:08:57.997Z,35.57
2018-07-17T16:11:29.975Z,35.58
2018-07-17T16:14:02.204Z,35.57
2018-07-17T16:16:33.952Z,35.57
2018-07-17T16:19:07.213Z,35.57
2018-07-17T16:21:39.409Z,35.59
2018-07-17T16:24:11.201Z,35.59
2018-07-17T16:26:43.759Z,35.59
2018-07-17T16:29:15.553Z,35.58
2018-07-17T16:31:47.161Z,35.57
2018-07-17T16:34:19.012Z,35.57
2018-07-17T16:36:50.809Z,35.58
2018-07-17T16:39:22.745Z,35.58
2018-07-17T16:41:54.248Z,35.51
2018-07-17T16:44:26.536Z,35.54
2018-07-17T16:46:58.036Z,35.53
2018-07-17T16:49:29.439Z,35.55
2018-07-17T16:52:01.448Z,35.56
2018-07-17T16:54:33.913Z,35.56
2018-07-17T16:57:05.769Z,35.56
2018-07-17T16:59:37.650Z,35.57
2018-07-17T17:02:09.333Z,35.57
2018-07-17T17:04:41.117Z,35.58
2018-07-17T17:07:12.761Z,35.57
2018-07-17T17:09:44.570Z,35.58
2018-07-17T17:12:16.323Z,35.58
2018-07-17T17:14:48.181Z,35.58
2018-07-17T17:17:19.813Z,35.57
2018-07-17T17:19:51.721Z,35.59
2018-07-17T17:22:23.550Z,35.58
2018-07-17T17:24:55.399Z,35.58
2018-07-17T17:27:27.081Z,35.57
2018-07-17T17:29:58.887Z,35.57
2018-07-17T17:32:30.631Z,35.56
2018-07-17T17:35:02.463Z,35.55
2018-07-17T17:37:34.110Z,35.57
2018-07-17T17:40:06.961Z,35.57
2018-07-17T17:42:38.674Z,35.58
2018-07-17T17:45:10.402Z,35.58
2018-07-17T17:47:42.312Z,35.58
2018-07-17T17:50:14.095Z,35.58
2018-07-17T17:52:45.851Z,35.57
2018-07-17T17:55:17.531Z,35.59
2018-07-17T17:57:48.991Z,35.57
2018-07-17T18:00:20.628Z,35.57
2018-07-17T18:02:52.793Z,35.57
2018-07-17T18:05:24.766Z,35.57
2018-07-17T18:07:56.452Z,35.58
2018-07-17T18:10:28.146Z,35.57
2018-07-17T18:12:59.891Z,35.56
2018-07-17T18:15:31.380Z,35.56
2018-07-17T18:18:03.280Z,35.55
2018-07-17T18:20:35.195Z,35.55
2018-07-17T18:23:07.020Z,35.57
2018-07-17T18:25:38.860Z,35.57
2018-07-17T18:28:10.246Z,35.56
2018-07-17T18:30:42.122Z,35.58
2018-07-17T18:33:13.821Z,35.57
2018-07-17T18:35:45.754Z,35.58
2018-07-17T18:38:17.369Z,35.57
2018-07-17T18:40:49.166Z,35.57
2018-07-17T18:43:20.834Z,35.58
2018-07-17T18:45:52.724Z,35.58
2018-07-17T18:48:24.074Z,35.56
2018-07-17T18:50:55.801Z,35.57
2018-07-17T18:53:27.540Z,35.56
2018-07-17T18:55:59.296Z,35.56
2018-07-17T18:58:31.234Z,35.57
2018-07-17T19:01:03.008Z,35.56
2018-07-17T19:03:34.713Z,35.56
2018-07-17T19:06:07.985Z,35.57
2018-07-17T19:08:39.715Z,35.57
2018-07-17T19:11:11.293Z,35.57
2018-07-17T19:13:42.731Z,35.56
2018-07-17T19:16:14.544Z,35.56
2018-07-17T19:18:46.321Z,35.57
2018-07-17T19:21:18.197Z,35.59
2018-07-17T19:23:50.262Z,35.57
2018-07-17T19:26:22.179Z,35.56
2018-07-17T19:28:54.214Z,35.55
2018-07-17T19:31:26.026Z,35.57
2018-07-17T19:33:58.000Z,35.56
2018-07-17T19:36:29.754Z,35.54
2018-07-17T19:39:01.448Z,35.54
2018-07-17T19:41:33.349Z,35.55
2018-07-17T19:44:05.267Z,35.52
2018-07-17T19:46:37.207Z,35.52
2018-07-17T19:49:08.909Z,35.53
2018-07-17T19:51:40.873Z,35.53
2018-07-17T19:54:12.684Z,35.54
2018-07-17T19:56:44.747Z,35.53
2018-07-17T19:59:16.424Z,35.51
2018-07-17T20:01:48.382Z,35.50
2018-07-17T20:04:20.053Z,35.52
2018-07-17T20:06:52.095Z,35.51
2018-07-17T20:09:23.910Z,35.49
2018-07-17T20:11:55.497Z,35.46
2018-07-17T20:14:27.187Z,35.47
2018-07-17T20:16:58.792Z,35.49
2018-07-17T20:19:30.528Z,35.47
2018-07-17T20:22:02.358Z,35.47
2018-07-17T20:24:33.887Z,35.46
2018-07-17T20:27:05.667Z,35.49
2018-07-17T20:29:37.262Z,35.50
2018-07-17T20:32:09.187Z,35.51
2018-07-17T20:34:40.820Z,35.50
2018-07-17T20:37:13.928Z,35.52
2018-07-17T20:39:45.316Z,35.51
2018-07-17T20:42:17.610Z,35.52
2018-07-17T20:44:49.266Z,35.52
2018-07-17T20:47:21.412Z,35.50
2018-07-17T20:49:53.125Z,35.50
2018-07-17T20:52:25.140Z,35.48
2018-07-17T20:54:57.453Z,35.49
2018-07-17T20:57:29.463Z,35.47
2018-07-17T21:00:01.284Z,35.50
2018-07-17T21:02:32.841Z,35.44
2018-07-17T21:05:04.872Z,35.48
2018-07-17T21:07:36.880Z,35.43
2018-07-17T21:10:08.570Z,35.42
2018-07-17T21:12:40.458Z,35.44
2018-07-17T21:15:12.116Z,35.44
2018-07-17T21:17:43.929Z,35.44
2018-07-17T21:20:15.718Z,35.43
2018-07-17T21:22:47.480Z,35.43
2018-07-17T21:25:19.294Z,35.43
2018-07-17T21:27:50.873Z,35.42
2018-07-17T21:30:22.732Z,35.44
2018-07-17T21:32:54.601Z,35.44
2018-07-17T21:35:26.494Z,35.45
2018-07-17T21:37:58.588Z,35.45
2018-07-17T21:40:30.319Z,35.43
2018-07-17T21:43:01.981Z,35.44
2018-07-17T21:45:33.937Z,35.44
2018-07-17T21:48:06.130Z,35.42
2018-07-17T21:50:37.805Z,35.41
2018-07-17T21:53:09.604Z,35.39
2018-07-17T21:55:41.287Z,35.41
2018-07-17T21:58:13.020Z,35.42
2018-07-17T22:00:44.835Z,35.42
2018-07-17T22:03:16.839Z,35.41
2018-07-17T22:05:48.487Z,35.44
2018-07-17T22:08:20.359Z,35.42
2018-07-17T22:10:51.980Z,35.41
2018-07-17T22:13:24.146Z,35.37
2018-07-17T22:15:55.757Z,35.39
2018-07-17T22:18:27.764Z,35.36
2018-07-17T22:20:59.200Z,35.37
2018-07-17T22:23:32.507Z,35.37
2018-07-17T22:26:04.215Z,35.35
2018-07-17T22:28:36.145Z,35.36
2018-07-17T22:31:07.997Z,35.37
2018-07-17T22:33:39.703Z,35.35
2018-07-17T22:36:11.283Z,35.34
2018-07-17T22:38:43.151Z,35.33
2018-07-17T22:41:14.960Z,35.33
2018-07-17T22:43:46.768Z,35.34
2018-07-17T22:46:18.767Z,35.33
2018-07-17T22:48:51.170Z,35.31
2018-07-17T22:51:22.785Z,35.30
2018-07-17T22:53:54.680Z,35.31
2018-07-17T22:56:26.106Z,35.30
2018-07-17T22:58:57.918Z,35.30
2018-07-17T23:01:29.673Z,35.30
2018-07-17T23:04:01.718Z,35.28
2018-07-17T23:06:33.049Z,35.27
2018-07-17T23:09:05.653Z,35.29
2018-07-17T23:11:37.554Z,35.31
2018-07-17T23:14:09.826Z,35.30
2018-07-17T23:16:41.669Z,35.29
2018-07-17T23:19:13.498Z,35.28
2018-07-17T23:21:45.069Z,35.30
2018-07-17T23:24:17.003Z,35.29
2018-07-17T23:26:49.137Z,35.29
2018-07-17T23:29:20.769Z,35.27
2018-07-17T23:31:52.497Z,35.28
2018-07-17T23:34:24.320Z,35.27
2018-07-17T23:36:56.006Z,35.27
2018-07-17T23:39:27.573Z,35.27
2018-07-17T23:41:59.233Z,35.26
2018-07-17T23:44:30.791Z,35.25
2018-07-17T23:47:02.333Z,35.27
2018-07-17T23:49:38.735Z,35.26
2018-07-17T23:52:10.500Z,35.24
2018-07-17T23:54:42.204Z,35.26
2018-07-17T23:57:15.430Z,35.27
2018-07-17T23:59:47.631Z,35.26
